アルマトイ の空港の天気 - METARとTAF

アルマトイ国際空港 ( UAAA / ALA ) - カザフスタン アルマトイ
飛行場実況気象(Metar)
観測時間08/05 00:00 QYZT (08/04 19:00 UTC)
風向・風速南南東 3m/s
視程10km以上
天気現象
少しの雲 雲底高度 3050m
気温22℃
湿度50%
気圧1005hPa
METARUAAA 041900Z 16003MPS 9999 FEW100 22/11 Q1005 R23L/CLRD65 NOSIG
過去の天気等 Google飛行場航空写真 Wunderground天気予報

過去48時間のMETAR

飛行場予報(TAF)
発表時間: 8/04 22:00 QYZT (8/04 17:00 UTC)
予報対象時間: 4日23時 QYZT ~ 5日23時 QYZT
風向・風速南南東 3m/s 瞬間風速 8m/s
視程10km以上
全天の4割程度の積乱雲 雲底高度 1520m
全天の8割程度の雲 雲底高度 3050m
4日23時 QYZT ~ 5日7時 QYZT に一時的に
風向・風速南南西 3m/s
5日7時 QYZT ~ 5日8時 QYZT に徐々に
風向・風速北東 3m/s
5日7時 QYZT ~ 5日18時 QYZT に一時的に
風向・風速北 3m/s 瞬間風速 10m/s
TAF UAAA 041700Z 0418/0518 15003G08MPS 9999 SCT050CB BKN100 TX34/0508Z TN17/0501Z
TEMPO 0418/0502 20003MPS
BECMG 0502/0503 04003MPS
TEMPO 0502/0513 35003G10MPS